createdAt,value
2022-09-12T00:01:20.729Z,5.90
2022-09-12T00:23:06.406Z,6.10
2022-09-12T00:44:54.411Z,4.80
2022-09-12T01:06:42.593Z,4.10
2022-09-12T01:29:04.513Z,4.30
2022-09-12T01:50:57.539Z,4.10
2022-09-12T02:12:50.586Z,4.00
2022-09-12T02:34:49.509Z,3.50
2022-09-12T02:56:35.213Z,4.40
2022-09-12T03:18:34.229Z,3.70
2022-09-12T03:40:20.422Z,4.20
2022-09-12T04:02:06.343Z,4.10
2022-09-12T04:23:52.288Z,4.50
2022-09-12T04:45:38.032Z,3.90
2022-09-12T05:07:23.776Z,4.60
2022-09-12T05:29:09.426Z,4.50
2022-09-12T05:51:00.101Z,4.80
2022-09-12T06:12:46.102Z,4.70
2022-09-12T06:34:32.040Z,3.90
2022-09-12T06:56:20.133Z,3.50
2022-09-12T07:18:06.202Z,3.90
2022-09-12T07:39:51.919Z,2.80
2022-09-12T08:01:39.460Z,2.50
2022-09-12T08:23:25.619Z,2.30
2022-09-12T08:45:19.694Z,2.10
2022-09-12T09:07:38.312Z,1.90
2022-09-12T09:29:29.120Z,2.50
2022-09-12T09:51:17.644Z,2.80
2022-09-12T10:13:28.646Z,2.60
2022-09-12T10:35:23.052Z,2.60
2022-09-12T10:57:28.185Z,2.40
2022-09-12T11:19:28.205Z,2.20
2022-09-12T11:41:21.436Z,2.20
2022-09-12T12:03:16.107Z,2.10
2022-09-12T12:25:29.604Z,2.20
2022-09-12T12:47:23.394Z,2.30
2022-09-12T13:09:19.339Z,2.30
2022-09-12T13:31:17.162Z,2.40
2022-09-12T13:53:07.130Z,2.60
2022-09-12T14:36:41.283Z,2.30
2022-09-12T14:58:29.369Z,2.50
2022-09-12T15:20:15.889Z,2.60
2022-09-12T15:42:01.610Z,2.30
2022-09-12T16:03:48.821Z,2.70
2022-09-12T16:25:34.630Z,3.50
2022-09-12T16:47:20.556Z,3.40
2022-09-12T17:09:07.150Z,3.20
2022-09-12T17:30:59.602Z,3.20
2022-09-12T17:52:46.683Z,4.00
2022-09-12T18:14:33.002Z,3.80
2022-09-12T18:36:20.531Z,3.30
2022-09-12T18:58:06.931Z,3.90
2022-09-12T19:19:52.989Z,4.30
2022-09-12T19:41:39.099Z,4.00
2022-09-12T20:03:25.117Z,4.70
2022-09-12T20:25:11.822Z,5.80
2022-09-12T20:46:57.967Z,5.50
2022-09-12T21:08:44.232Z,5.50
2022-09-12T21:30:30.084Z,5.10
2022-09-12T21:52:15.765Z,5.90
2022-09-12T22:14:01.709Z,5.80
2022-09-12T22:35:47.609Z,6.30
2022-09-12T22:57:33.244Z,6.50
2022-09-12T23:19:19.033Z,6.60
2022-09-12T23:41:05.515Z,7.20
